Time;durP1;ratioP1;P1;durP2;ratioP2;P2;SDS_P1;SDS_P2;PMS_P1;PMS_P2;Temp;Humidity;BMP_temperature;BMP_pressure;BME280_temperature;BME280_humidity;BME280_pressure;Samples;Min_cycle;Max_cycle;Signal;HPM_P1;HPM_P2
2023/01/17 00:01:09;;;;;;;1999.90;999.90;;;;;;;0.98;100.00;95513.78;4954144;29;20528;-76
2023/01/17 00:09:51;;;;;;;1999.90;999.90;;;;;;;0.94;100.00;95520.06;4954202;29;20110;-75
2023/01/17 00:11:53;;;;;;;1999.90;999.90;;;;;;;0.85;100.00;95528.00;4953961;29;20051;-75
2023/01/17 00:14:18;;;;;;;1999.90;999.90;;;;;;;0.86;100.00;95528.78;4953820;29;20035;-75
2023/01/17 00:16:43;;;;;;;1999.90;999.90;;;;;;;0.87;100.00;95525.03;4953745;29;20429;-75
2023/01/17 01:35:56;;;;;;;1999.90;999.90;;;;;;;0.94;100.00;95574.66;4954006;28;20066;-75
2023/01/17 01:38:23;;;;;;;1999.90;999.90;;;;;;;1.10;100.00;95580.59;4944667;29;20057;-76
2023/01/17 01:40:51;;;;;;;1999.90;999.90;;;;;;;1.10;100.00;95577.13;4961660;29;20054;-76
2023/01/17 01:43:38;;;;;;;1999.90;999.90;;;;;;;1.09;100.00;95581.72;4958903;28;20026;-77
2023/01/17 01:46:03;;;;;;;1999.90;999.90;;;;;;;1.16;100.00;95581.34;4941370;29;20400;-77
2023/01/17 01:48:40;;;;;;;1999.90;999.90;;;;;;;1.03;100.00;95572.91;4959644;29;20039;-75
2023/01/17 01:51:12;;;;;;;1999.90;999.90;;;;;;;1.07;100.00;95579.28;4964283;29;20054;-77
2023/01/17 01:53:41;;;;;;;1999.90;999.90;;;;;;;1.04;100.00;95574.50;4962644;28;20043;-75
2023/01/17 01:56:11;;;;;;;1999.90;999.90;;;;;;;0.97;100.00;95568.69;4958990;29;20039;-76
2023/01/17 01:58:38;;;;;;;1999.90;999.90;;;;;;;1.02;100.00;95575.91;4958802;29;20023;-76
2023/01/17 02:01:05;;;;;;;1999.90;999.90;;;;;;;0.98;100.00;95578.38;4958824;29;20030;-78
2023/01/17 02:03:32;;;;;;;1999.90;999.90;;;;;;;0.89;100.00;95571.25;4958759;29;20122;-75
2023/01/17 02:06:07;;;;;;;1999.90;999.90;;;;;;;0.86;100.00;95571.84;4958881;28;20035;-75
2023/01/17 02:08:33;;;;;;;1999.90;999.90;;;;;;;0.96;100.00;95582.44;4958737;29;20039;-77
2023/01/17 02:10:59;;;;;;;1999.90;999.90;;;;;;;0.96;100.00;95567.13;4958722;29;20481;-75
2023/01/17 02:13:25;;;;;;;1999.90;999.90;;;;;;;0.92;100.00;95566.09;4958722;28;20042;-76
2023/01/17 02:16:32;;;;;;;1999.90;999.90;;;;;;;0.89;100.00;95565.88;4958681;29;20031;-76
2023/01/17 02:19:09;;;;;;;1999.90;999.90;;;;;;;0.85;100.00;95565.66;4929672;29;20130;-75
2023/01/17 02:21:55;;;;;;;1999.90;999.90;;;;;;;0.86;100.00;95561.88;4958808;29;20393;-76
2023/01/17 02:24:42;;;;;;;;;;;;;;;0.85;100.00;95568.34;4958919;28;20089;-75
2023/01/17 02:27:34;;;;;;;1999.90;999.90;;;;;;;0.85;100.00;95570.22;4958474;29;19922;-79
2023/01/17 02:30:26;;;;;;;1999.90;999.90;;;;;;;0.75;100.00;95568.50;4941083;29;20126;-76
2023/01/17 02:33:00;;;;;;;1999.90;999.90;;;;;;;0.68;100.00;95559.22;4958488;29;20031;-76
2023/01/17 02:35:44;;;;;;;1999.90;999.90;;;;;;;0.72;100.00;95562.94;4958647;29;20039;-76
2023/01/17 02:38:50;;;;;;;1999.90;999.90;;;;;;;0.74;100.00;95558.84;4958757;28;20035;-75
2023/01/17 02:41:21;;;;;;;1999.90;999.90;;;;;;;0.70;100.00;95575.84;4930440;28;20078;-74
2023/01/17 02:43:49;;;;;;;1999.90;999.90;;;;;;;0.79;100.00;95556.06;4958323;28;20023;-75
2023/01/17 02:46:14;;;;;;;1999.90;999.90;;;;;;;0.75;100.00;95556.97;4958352;28;20504;-75
2023/01/17 02:48:40;;;;;;;1999.90;999.90;;;;;;;0.78;100.00;95557.19;4956081;28;20042;-77
2023/01/17 02:51:08;;;;;;;1999.90;999.90;;;;;;;0.73;100.00;95549.16;4938401;29;20031;-75
2023/01/17 02:53:51;;;;;;;1999.90;999.90;;;;;;;0.64;100.00;95548.22;4954949;29;20043;-76
2023/01/17 02:56:54;;;;;;;1999.90;999.90;;;;;;;0.63;100.00;95543.94;4955169;29;20034;-75
2023/01/17 02:59:36;;;;;;;1999.90;999.90;;;;;;;0.49;100.00;95543.88;4954824;29;20098;-75
2023/01/17 03:02:08;;;;;;;1999.90;999.90;;;;;;;0.51;100.00;95541.69;4955163;29;20062;-75
2023/01/17 03:04:40;;;;;;;1999.90;999.90;;;;;;;0.41;100.00;95543.72;4955092;29;20522;-75
2023/01/17 03:07:15;;;;;;;1999.90;999.90;;;;;;;0.42;100.00;95539.94;4954898;29;20045;-77
2023/01/17 03:09:44;;;;;;;1999.90;999.90;;;;;;;0.32;100.00;95534.72;4937593;29;20062;-76
2023/01/17 03:12:10;;;;;;;1999.90;999.90;;;;;;;0.33;100.00;95529.06;4954987;29;20121;-74
2023/01/17 03:14:35;;;;;;;1999.90;999.90;;;;;;;0.38;100.00;95530.88;4954919;29;20118;-74
2023/01/17 03:17:01;;;;;;;1999.90;999.90;;;;;;;0.36;100.00;95538.44;4955028;29;20086;-73
2023/01/17 03:19:26;;;;;;;1999.90;999.90;;;;;;;0.29;100.00;95536.09;4954809;29;20082;-74
2023/01/17 03:21:51;;;;;;;1999.90;999.90;;;;;;;0.30;100.00;95531.53;4955063;29;20027;-74
2023/01/17 03:24:17;;;;;;;1999.90;999.90;;;;;;;0.17;100.00;95534.94;4954751;29;20035;-74
2023/01/17 03:26:46;;;;;;;1999.90;999.90;;;;;;;0.12;100.00;95537.69;4955918;29;20034;-76
2023/01/17 03:29:12;;;;;;;1999.90;999.90;;;;;;;0.11;100.00;95533.41;4955261;29;20039;-74
2023/01/17 03:31:37;;;;;;;1999.90;999.90;;;;;;;0.04;100.00;95532.94;4954577;29;20539;-75
2023/01/17 03:34:02;;;;;;;1999.90;999.90;;;;;;;0.07;100.00;95527.00;4954589;29;20031;-75
2023/01/17 03:36:28;;;;;;;1999.90;999.90;;;;;;;0.07;100.00;95538.53;4954495;29;20457;-75
2023/01/17 03:38:53;;;;;;;1999.90;999.90;;;;;;;0.05;100.00;95543.41;4954306;29;20539;-76
2023/01/17 03:41:18;;;;;;;1999.90;999.90;;;;;;;0.14;100.00;95546.25;4954210;29;20019;-75
2023/01/17 03:43:44;;;;;;;1999.90;999.90;;;;;;;0.09;100.00;95543.66;4954477;29;20050;-74
2023/01/17 03:46:21;;;;;;;1999.90;999.90;;;;;;;0.14;100.00;95559.69;4937085;29;20034;-77
2023/01/17 03:48:47;;;;;;;1999.90;999.90;;;;;;;0.21;100.00;95571.69;4954285;29;20066;-75
2023/01/17 03:51:12;;;;;;;1999.90;999.90;;;;;;;0.22;100.00;95575.97;4954453;29;20430;-76
2023/01/17 03:53:37;;;;;;;1999.90;999.90;;;;;;;0.41;100.00;95570.59;4954117;29;20039;-76
2023/01/17 03:56:03;;;;;;;1999.90;999.90;;;;;;;0.49;100.00;95564.59;4954096;29;20031;-75
2023/01/17 03:58:28;;;;;;;1999.90;999.90;;;;;;;0.52;100.00;95566.69;4956403;29;20023;-76
2023/01/17 04:00:53;;;;;;;1999.90;999.90;;;;;;;0.52;100.00;95566.69;4958894;28;20145;-76
2023/01/17 04:03:19;;;;;;;1999.90;999.90;;;;;;;0.66;100.00;95582.91;4954896;28;20122;-77
2023/01/17 04:05:44;;;;;;;1999.90;999.90;;;;;;;0.76;100.00;95578.16;4953998;29;20105;-77
2023/01/17 04:08:09;;;;;;;1999.90;999.90;;;;;;;0.61;100.00;95564.94;4953861;29;20031;-76
2023/01/17 04:10:35;;;;;;;1999.90;999.90;;;;;;;0.69;100.00;95558.91;4953965;28;20078;-76
2023/01/17 04:13:00;;;;;;;1999.90;999.90;;;;;;;0.64;100.00;95559.00;4954080;28;20030;-75
2023/01/17 04:15:25;;;;;;;1999.90;999.90;;;;;;;0.63;100.00;95564.69;4953858;29;20041;-76
2023/01/17 04:17:51;;;;;;;1999.90;999.90;;;;;;;0.63;100.00;95557.38;4953838;28;20038;-79
2023/01/17 04:20:26;;;;;;;1999.90;999.90;;;;;;;0.61;100.00;95556.09;4953461;29;20031;-79
2023/01/17 04:22:52;;;;;;;1999.90;999.90;;;;;;;0.70;100.00;95557.00;4954030;28;20027;-77
2023/01/17 04:25:17;;;;;;;1999.90;999.90;;;;;;;0.64;100.00;95567.06;4953736;29;20034;-76
2023/01/17 04:27:42;;;;;;;1999.90;999.90;;;;;;;0.70;100.00;95568.56;4953726;29;20031;-77
2023/01/17 04:30:08;;;;;;;1999.90;999.90;;;;;;;0.64;100.00;95585.09;4951154;29;20027;-77
2023/01/17 04:32:34;;;;;;;1999.90;999.90;;;;;;;0.63;100.00;95578.13;4942325;29;20035;-74
2023/01/17 04:34:59;;;;;;;1999.90;999.90;;;;;;;0.68;100.00;95569.97;4954402;28;20273;-75
2023/01/17 04:37:24;;;;;;;1999.90;999.90;;;;;;;0.62;100.00;95558.50;4955390;28;20043;-74
2023/01/17 04:39:49;;;;;;;1999.90;999.90;;;;;;;0.54;100.00;95567.19;4952443;28;20401;-76
2023/01/17 04:42:15;;;;;;;1999.90;999.90;;;;;;;0.52;100.00;95566.69;4951813;28;20032;-74
2023/01/17 04:44:40;;;;;;;1999.90;999.90;;;;;;;0.44;100.00;95565.44;4953019;29;20077;-73
2023/01/17 04:47:05;;;;;;;1999.90;999.90;;;;;;;0.38;100.00;95573.88;4952901;29;20384;-75
2023/01/17 04:49:31;;;;;;;1999.90;999.90;;;;;;;0.49;100.00;95580.72;4952325;29;20097;-74
2023/01/17 04:51:56;;;;;;;1999.90;999.90;;;;;;;0.51;100.00;95581.22;4952835;29;20075;-75
2023/01/17 04:54:21;;;;;;;1999.90;999.90;;;;;;;0.42;100.00;95577.59;4952646;29;20059;-74
2023/01/17 04:56:47;;;;;;;1999.90;999.90;;;;;;;0.37;100.00;95562.34;4952600;29;20054;-74
2023/01/17 04:59:13;;;;;;;1999.90;999.90;;;;;;;0.32;100.00;95540.91;4952768;29;20050;-75
2023/01/17 05:01:38;;;;;;;1999.90;999.90;;;;;;;0.32;100.00;95569.66;4952493;29;20819;-79
2023/01/17 05:04:03;;;;;;;1999.90;999.90;;;;;;;0.12;100.00;95573.44;4952802;29;20539;-74
2023/01/17 05:06:29;;;;;;;1999.90;999.90;;;;;;;0.25;100.00;95578.06;4952698;29;20492;-74
2023/01/17 05:08:54;;;;;;;1999.90;999.90;;;;;;;0.34;100.00;95581.75;4952559;29;20100;-73
2023/01/17 05:11:19;;;;;;;1999.90;999.90;;;;;;;0.44;100.00;95576.22;4952093;28;20031;-74
2023/01/17 05:13:46;;;;;;;1999.90;999.90;;;;;;;0.49;100.00;95586.91;4955637;29;20031;-77
2023/01/17 05:16:12;;;;;;;1999.90;999.90;;;;;;;0.29;100.00;95571.03;4956403;29;20143;-75
2023/01/17 05:18:37;;;;;;;1999.90;999.90;;;;;;;0.37;100.00;95580.34;4940034;29;20063;-75
2023/01/17 05:21:03;;;;;;;1999.90;999.90;;;;;;;0.39;100.00;95575.47;4954402;29;20015;-74
2023/01/17 05:23:28;;;;;;;1999.90;999.90;;;;;;;0.42;100.00;95577.59;4954042;29;20086;-74
2023/01/17 05:25:54;;;;;;;1999.90;999.90;;;;;;;0.17;100.00;95597.53;4953217;29;20060;-74
2023/01/17 05:28:19;;;;;;;1999.90;999.90;;;;;;;0.22;100.00;95599.38;4952069;29;20035;-74
2023/01/17 05:30:44;;;;;;;1999.90;999.90;;;;;;;0.36;100.00;95605.63;4957682;28;20022;-75
2023/01/17 05:33:10;;;;;;;1999.90;999.90;;;;;;;0.47;100.00;95609.81;4971486;28;20027;-74
2023/01/17 05:35:35;;;;;;;1999.90;999.90;;;;;;;0.59;100.00;95604.78;4952228;28;20382;-75
2023/01/17 05:38:01;;;;;;;1999.90;999.90;;;;;;;0.47;100.00;95607.88;4952375;29;20031;-75
2023/01/17 05:40:29;;;;;;;1999.90;999.90;;;;;;;0.53;100.00;95605.94;4951598;29;20492;-75
2023/01/17 05:42:56;;;;;;;1999.90;999.90;;;;;;;0.54;100.00;95604.84;4951662;29;20039;-75
2023/01/17 05:45:24;;;;;;;1999.90;999.90;;;;;;;0.58;100.00;95618.50;4952337;29;20474;-74
2023/01/17 05:47:51;;;;;;;1999.90;999.90;;;;;;;0.63;100.00;95638.06;4951485;29;20019;-75
2023/01/17 05:50:18;;;;;;;1999.90;999.90;;;;;;;0.63;100.00;95638.06;4951784;28;20500;-75
2023/01/17 05:52:52;;;;;;;1999.90;999.90;;;;;;;0.69;100.00;95628.84;4953276;29;20125;-74
2023/01/17 05:55:18;;;;;;;1999.90;999.90;;;;;;;0.70;100.00;95611.63;4953256;29;20036;-75
2023/01/17 05:57:44;;;;;;;1999.90;999.90;;;;;;;0.65;100.00;95616.28;4953150;29;20042;-77
2023/01/17 06:00:10;;;;;;;1999.90;999.90;;;;;;;0.79;100.00;95609.06;4968831;28;20054;-76
2023/01/17 06:02:35;;;;;;;1999.90;999.90;;;;;;;0.76;100.00;95615.84;4971687;28;20031;-78
2023/01/17 06:05:01;;;;;;;1999.90;999.90;;;;;;;0.74;100.00;95627.97;4972061;28;20052;-74
2023/01/17 06:07:26;;;;;;;1999.90;999.90;;;;;;;0.65;100.00;95625.16;4973531;28;20089;-75
2023/01/17 06:09:51;;;;;;;1999.90;999.90;;;;;;;0.76;100.00;95629.28;4974389;28;20031;-75
2023/01/17 06:12:16;;;;;;;1999.90;999.90;;;;;;;0.75;100.00;95624.97;4971717;28;20030;-75
2023/01/17 06:14:42;;;;;;;1999.90;999.90;;;;;;;0.80;100.00;95630.31;4970099;28;20055;-75
2023/01/17 06:17:07;;;;;;;1999.90;999.90;;;;;;;0.69;100.00;95628.84;4949293;28;20042;-73
2023/01/17 06:19:32;;;;;;;1999.90;999.90;;;;;;;0.79;100.00;95628.69;4940132;28;20039;-74
2023/01/17 06:21:58;;;;;;;1999.90;999.90;;;;;;;0.81;100.00;95631.91;4961509;28;20062;-77
2023/01/17 06:24:23;;;;;;;1999.90;999.90;;;;;;;0.85;100.00;95640.97;4958819;28;20121;-76
2023/01/17 06:26:48;;;;;;;1999.90;999.90;;;;;;;0.88;100.00;95643.09;4942946;29;20075;-76
2023/01/17 06:29:14;;;;;;;1999.90;999.90;;;;;;;0.88;100.00;95648.47;4936294;29;20415;-75
2023/01/17 06:31:39;;;;;;;1999.90;999.90;;;;;;;0.95;100.00;95651.59;4962366;28;20820;-74
2023/01/17 06:34:05;;;;;;;1999.90;999.90;;;;;;;0.89;100.00;95647.38;4974889;28;20108;-75
2023/01/17 06:36:31;;;;;;;1999.90;999.90;;;;;;;0.95;100.00;95662.38;4974409;28;20523;-75
2023/01/17 06:38:57;;;;;;;1999.90;999.90;;;;;;;0.96;100.00;95647.84;4966762;28;20113;-78
2023/01/17 06:41:24;;;;;;;1999.90;999.90;;;;;;;0.93;100.00;95661.06;4957430;28;20106;-75
2023/01/17 06:43:52;;;;;;;1999.90;999.90;;;;;;;0.99;100.00;95667.97;4954742;29;20117;-75
2023/01/17 06:46:17;;;;;;;1999.90;999.90;;;;;;;0.73;100.00;95667.53;4957021;28;20019;-76
2023/01/17 06:48:42;;;;;;;1999.90;999.90;;;;;;;0.86;100.00;95674.06;4968767;28;20396;-76
2023/01/17 06:51:08;;;;;;;1999.90;999.90;;;;;;;0.59;100.00;95658.56;4963357;28;20016;-75
2023/01/17 06:53:34;;;;;;;1999.90;999.90;;;;;;;0.70;100.00;95654.66;4964219;28;20081;-74
2023/01/17 06:56:23;;;;;;;1999.90;999.90;;;;;;;0.71;100.00;95648.19;4969816;28;20030;-75
2023/01/17 06:58:50;;;;;;;1999.90;999.90;;;;;;;0.68;100.00;95658.72;4975043;28;20043;-75
2023/01/17 07:01:16;;;;;;;1999.90;999.90;;;;;;;0.72;100.00;95649.78;4957024;28;20400;-79
2023/01/17 07:03:42;;;;;;;1999.90;999.90;;;;;;;0.64;100.00;95655.81;4974806;28;20022;-76
2023/01/17 07:06:10;;;;;;;1999.90;999.90;;;;;;;0.58;100.00;95656.97;4969878;28;20027;-75
2023/01/17 07:08:35;;;;;;;1999.90;999.90;;;;;;;0.72;100.00;95681.28;4954589;29;20556;-75
2023/01/17 07:11:03;;;;;;;1999.90;999.90;;;;;;;0.89;100.00;95678.88;4954454;29;20163;-76
2023/01/17 07:13:38;;;;;;;1999.90;999.90;;;;;;;0.84;100.00;95681.66;4954520;29;20031;-76
2023/01/17 07:16:05;;;;;;;1999.90;999.90;;;;;;;0.74;100.00;95679.88;4937444;29;20035;-75
2023/01/17 07:18:31;;;;;;;1999.90;999.90;;;;;;;0.73;100.00;95670.22;4954334;29;20477;-75
2023/01/17 07:20:57;;;;;;;1999.90;999.90;;;;;;;0.94;100.00;95671.53;4954600;29;20031;-75
2023/01/17 07:23:23;;;;;;;1999.90;999.90;;;;;;;1.00;100.00;95670.34;4955020;29;20032;-75
2023/01/17 07:25:55;;;;;;;1999.90;999.90;;;;;;;0.96;100.00;95676.63;4954419;29;20028;-76
2023/01/17 07:28:22;;;;;;;1999.90;999.90;;;;;;;0.91;100.00;95671.31;4954227;29;20536;-75
2023/01/17 07:30:47;;;;;;;1999.90;999.90;;;;;;;1.01;100.00;95663.91;4954251;29;20062;-75
2023/01/17 07:33:12;;;;;;;1999.90;999.90;;;;;;;1.11;100.00;95659.44;4936963;29;20055;-75
2023/01/17 07:35:38;;;;;;;1999.90;999.90;;;;;;;1.11;100.00;95649.50;4953007;28;20047;-76
2023/01/17 07:38:04;;;;;;;1999.90;999.90;;;;;;;1.26;100.00;95656.53;4953885;29;20058;-74
2023/01/17 07:40:30;;;;;;;1999.90;999.90;;;;;;;1.28;100.00;95659.75;4954173;29;20034;-75
2023/01/17 07:43:02;;;;;;;1999.90;999.90;;;;;;;1.34;100.00;95658.56;4954466;29;20027;-79
2023/01/17 07:45:27;;;;;;;1999.90;999.90;;;;;;;1.55;100.00;95678.69;4954306;29;20062;-82
2023/01/17 07:47:56;;;;;;;1999.90;999.90;;;;;;;1.67;100.00;95665.53;4953983;29;20058;-77
2023/01/17 07:50:21;;;;;;;1999.90;999.90;;;;;;;1.73;100.00;95677.84;4949402;29;20036;-76
2023/01/17 07:52:50;;;;;;;1999.90;999.90;;;;;;;1.80;100.00;95667.47;4952892;29;20401;-75
2023/01/17 07:55:15;;;;;;;1999.90;999.90;;;;;;;1.72;100.00;95654.69;4953131;29;20702;-75
2023/01/17 07:57:40;;;;;;;1999.90;999.90;;;;;;;1.70;100.00;95670.34;4953136;29;20020;-76
2023/01/17 08:00:06;;;;;;;1999.90;999.90;;;;;;;1.77;100.00;95672.66;4950370;28;20504;-78
2023/01/17 08:02:32;;;;;;;1999.90;999.90;;;;;;;1.85;100.00;95675.47;4953045;29;20031;-78
2023/01/17 08:04:57;;;;;;;1999.90;999.90;;;;;;;1.83;100.00;95683.06;4953334;29;20034;-74
2023/01/17 08:07:22;;;;;;;1999.90;999.90;;;;;;;1.71;100.00;95680.03;4953265;29;20035;-75
2023/01/17 08:09:49;;;;;;;1999.90;999.90;;;;;;;1.57;100.00;95677.28;4952758;28;20047;-74
2023/01/17 08:12:15;;;;;;;1999.90;999.90;;;;;;;1.43;100.00;95678.34;4952891;28;20023;-76
2023/01/17 08:14:40;;;;;;;1999.90;999.90;;;;;;;1.32;100.00;95679.59;4953260;28;20473;-78
2023/01/17 08:17:09;;;;;;;1999.90;999.90;;;;;;;1.26;100.00;95678.88;4953618;28;20031;-75
2023/01/17 08:19:34;;;;;;;1999.90;999.90;;;;;;;0.99;100.00;95671.47;4950275;29;20035;-77
2023/01/17 08:22:00;;;;;;;1999.90;999.90;;;;;;;1.12;100.00;95671.81;4951105;29;20019;-75
2023/01/17 08:24:25;;;;;;;1999.90;999.90;;;;;;;1.25;100.00;95652.25;4952387;29;20027;-76
2023/01/17 08:26:53;;;;;;;1999.90;999.90;;;;;;;1.41;100.00;95664.38;4951953;29;20388;-78
2023/01/17 08:29:19;;;;;;;1999.90;999.90;;;;;;;1.41;100.00;95649.00;4950910;29;20078;-79
2023/01/17 08:31:44;;;;;;;1999.90;999.90;;;;;;;1.50;100.00;95663.41;4935450;29;20039;-76
2023/01/17 08:34:09;;;;;;;1999.90;999.90;;;;;;;1.68;100.00;95664.47;4952285;29;20155;-75
2023/01/17 08:36:35;;;;;;;1999.90;999.90;;;;;;;1.65;100.00;95653.47;4952145;29;20413;-76
2023/01/17 08:39:00;;;;;;;1999.90;999.90;;;;;;;2.53;100.00;95647.78;4951228;29;20479;-77
2023/01/17 08:41:26;;;;;;;1999.90;999.90;;;;;;;2.16;100.00;95646.09;4950778;29;20071;-78
2023/01/17 08:43:52;;;;;;;1999.90;999.90;;;;;;;2.04;100.00;95661.91;4952197;29;20035;-78
2023/01/17 08:46:18;;;;;;;1999.90;999.90;;;;;;;2.04;100.00;95657.34;4951723;28;20365;-77
2023/01/17 08:48:44;;;;;;;1999.90;999.90;;;;;;;2.10;100.00;95663.41;4954482;29;20046;-77
2023/01/17 08:51:11;;;;;;;1999.90;999.90;;;;;;;2.17;100.00;95667.34;4937968;29;20031;-77
2023/01/17 08:53:37;;;;;;;1999.90;999.90;;;;;;;2.41;100.00;95658.28;4950959;29;20480;-75
2023/01/17 08:56:04;;;;;;;1999.90;999.90;;;;;;;2.56;100.00;95661.47;4951675;29;20027;-76
2023/01/17 08:58:30;;;;;;;1999.90;999.90;;;;;;;2.46;100.00;95660.84;4946935;29;20039;-76
2023/01/17 09:01:03;;;;;;;1999.90;999.90;;;;;;;2.59;100.00;95670.84;4943588;29;20070;-78
2023/01/17 09:03:30;;;;;;;1999.90;999.90;;;;;;;2.51;100.00;95666.13;4951780;29;20023;-76
2023/01/17 09:06:11;;;;;;;1999.90;999.90;;;;;;;2.27;100.00;95652.88;4951622;29;20031;-76
2023/01/17 09:08:37;;;;;;;1999.90;999.90;;;;;;;2.21;100.00;95642.47;4951533;29;20070;-76
2023/01/17 09:11:14;;;;;;;1999.90;999.90;;;;;;;2.27;100.00;95666.34;4951841;29;20122;-77
2023/01/17 09:13:39;;;;;;;1999.90;999.90;;;;;;;2.31;100.00;95661.97;4951895;29;20031;-76
2023/01/17 09:16:06;;;;;;;1999.90;999.90;;;;;;;2.32;100.00;95662.78;4949516;29;20024;-77
2023/01/17 09:18:33;;;;;;;1999.90;999.90;;;;;;;2.15;100.00;95647.16;4932591;29;20031;-75
2023/01/17 09:20:59;;;;;;;1999.90;999.90;;;;;;;2.07;100.00;95656.75;4932473;29;20430;-76
2023/01/17 09:23:26;;;;;;;1999.90;999.90;;;;;;;1.99;100.00;95648.53;4932625;29;20070;-76
2023/01/17 09:25:53;;;;;;;1999.90;999.90;;;;;;;2.11;100.00;95662.34;4932484;29;20090;-75
2023/01/17 09:28:19;;;;;;;1999.90;999.90;;;;;;;2.15;100.00;95645.28;4915488;29;20035;-74
2023/01/17 09:30:45;;;;;;;1999.90;999.90;;;;;;;2.24;100.00;95639.19;4932626;29;20050;-74
2023/01/17 09:33:11;;;;;;;1999.90;999.90;;;;;;;2.24;100.00;95647.25;4932483;29;20039;-75
2023/01/17 09:35:36;;;;;;;1999.90;999.90;;;;;;;2.25;100.00;95640.78;4932763;29;20396;-74
2023/01/17 09:38:02;;;;;;;1999.90;999.90;;;;;;;2.25;100.00;95646.19;4932759;29;20561;-75
2023/01/17 09:40:27;;;;;;;1999.90;999.90;;;;;;;2.29;100.00;95649.88;4915069;29;20449;-74
2023/01/17 09:43:00;;;;;;;1999.90;999.90;;;;;;;2.46;100.00;95644.66;4932555;29;20446;-75
2023/01/17 09:45:28;;;;;;;1999.90;999.90;;;;;;;2.53;100.00;95650.47;4937592;29;20123;-74
2023/01/17 09:47:54;;;;;;;1999.90;999.90;;;;;;;2.63;100.00;95636.78;4951553;29;20102;-74
2023/01/17 09:50:32;;;;;;;1999.90;999.90;;;;;;;2.67;100.00;95645.84;4951708;29;20118;-75
2023/01/17 09:53:04;;;;;;;1999.90;999.90;;;;;;;2.77;100.00;95640.22;4951182;29;20039;-75
2023/01/17 09:55:38;;;;;;;1999.90;999.90;;;;;;;2.66;100.00;95638.88;4951712;29;20030;-74
2023/01/17 09:58:09;;;;;;;;;;;;;;;2.54;100.00;95635.84;4953434;28;20102;-74
2023/01/17 10:00:49;;;;;;;1999.90;999.90;;;;;;;2.42;100.00;95635.56;4955338;29;20018;-74
2023/01/17 10:03:19;;;;;;;1999.90;999.90;;;;;;;2.45;100.00;95618.78;4955303;29;20130;-76
2023/01/17 10:06:18;;;;;;;1999.90;999.90;;;;;;;2.44;100.00;95617.22;4955787;29;20495;-78
2023/01/17 10:09:12;;;;;;;1999.90;999.90;;;;;;;2.45;100.00;95629.56;4955367;29;20042;-78
2023/01/17 10:12:07;;;;;;;1999.90;999.90;;;;;;;2.52;100.00;95620.00;4955267;29;20480;-75
2023/01/17 10:15:07;;;;;;;1999.90;999.90;;;;;;;2.48;100.00;95615.47;4955089;29;20055;-76
2023/01/17 10:18:03;;;;;;;1999.90;999.90;;;;;;;2.54;100.00;95611.56;4955514;29;20039;-76
2023/01/17 10:20:37;;;;;;;1999.90;999.90;;;;;;;2.62;100.00;95592.78;4937864;29;20039;-74
2023/01/17 10:23:16;;;;;;;1999.90;999.90;;;;;;;2.55;100.00;95578.09;4955208;29;20122;-74
2023/01/17 10:25:53;;;;;;;1999.90;999.90;;;;;;;2.48;100.00;95572.31;4957709;29;20061;-75
2023/01/17 10:28:26;;;;;;;1999.90;999.90;;;;;;;2.62;100.00;95570.41;4956516;29;20091;-76
2023/01/17 10:30:58;;;;;;;1999.90;999.90;;;;;;;2.65;100.00;95576.00;4955267;29;20034;-77
2023/01/17 10:33:28;;;;;;;1999.90;999.90;;;;;;;2.57;100.00;95570.50;4955024;29;20035;-76
2023/01/17 10:36:01;;;;;;;1999.90;999.90;;;;;;;2.48;100.00;95566.94;4938091;29;20023;-77
2023/01/17 10:38:35;;;;;;;1999.90;999.90;;;;;;;2.50;100.00;95554.75;4955524;29;20079;-75
2023/01/17 10:41:07;;;;;;;1999.90;999.90;;;;;;;2.67;100.00;95562.19;4955081;29;20038;-77
2023/01/17 10:43:38;;;;;;;1999.90;999.90;;;;;;;2.66;100.00;95552.53;4955294;29;20399;-78
2023/01/17 10:46:03;;;;;;;1999.90;999.90;;;;;;;2.71;100.00;95552.38;4955563;29;20037;-77
2023/01/17 10:48:38;;;;;;;1999.90;999.90;;;;;;;2.60;100.00;95545.66;4957422;29;20036;-82
2023/01/17 10:51:11;;;;;;;1999.90;999.90;;;;;;;2.41;100.00;95553.06;4961141;29;20035;-81
2023/01/17 10:53:45;;;;;;;1999.90;999.90;;;;;;;2.36;100.00;95555.88;4943107;29;20047;-79
2023/01/17 10:56:13;;;;;;;1999.90;999.90;;;;;;;2.26;100.00;95531.81;4960478;29;20043;-76
2023/01/17 10:58:39;;;;;;;1999.90;999.90;;;;;;;2.15;100.00;95528.53;4961053;29;20051;-77
2023/01/17 11:01:20;;;;;;;1999.90;999.90;;;;;;;2.04;100.00;95537.94;4960479;29;20038;-79
2023/01/17 11:03:49;;;;;;;1999.90;999.90;;;;;;;1.74;100.00;95523.19;4942781;29;20393;-77
2023/01/17 11:06:23;;;;;;;1999.90;999.90;;;;;;;1.70;100.00;95529.44;4961281;29;20023;-77
2023/01/17 11:08:53;;;;;;;1999.90;999.90;;;;;;;1.88;100.00;95523.19;4960572;28;20122;-77
2023/01/17 11:11:22;;;;;;;1999.90;999.90;;;;;;;1.91;100.00;95523.34;4957407;29;20036;-77
2023/01/17 11:13:50;;;;;;;1999.90;999.90;;;;;;;1.84;100.00;95524.88;4954035;29;20034;-75
2023/01/17 11:16:24;;;;;;;1999.90;999.90;;;;;;;1.73;100.00;95505.41;4954192;29;20035;-74
2023/01/17 11:19:07;;;;;;;1999.90;999.90;;;;;;;1.61;100.00;95513.19;4953724;29;20031;-74
2023/01/17 11:21:33;;;;;;;1999.90;999.90;;;;;;;1.76;100.00;95514.78;4953672;29;20024;-75
2023/01/17 11:24:09;;;;;;;1999.90;999.90;;;;;;;1.77;100.00;95498.31;4953772;29;20042;-76
2023/01/17 11:26:36;;;;;;;1999.90;999.90;;;;;;;1.94;100.00;95501.19;4953813;29;20126;-76
2023/01/17 11:29:26;;;;;;;1999.90;999.90;;;;;;;1.94;100.00;95503.88;4953879;29;20516;-79
2023/01/17 11:31:55;;;;;;;1999.90;999.90;;;;;;;1.89;100.00;95497.81;4953302;29;20118;-76
2023/01/17 11:34:25;;;;;;;1999.90;999.90;;;;;;;1.92;100.00;95481.03;4953761;29;20068;-75
2023/01/17 11:37:08;;;;;;;1999.90;999.90;;;;;;;1.91;100.00;95469.47;4953389;29;20036;-78
2023/01/17 11:39:33;;;;;;;1999.90;999.90;;;;;;;1.94;100.00;95468.09;4937119;29;20027;-75
2023/01/17 11:41:58;;;;;;;1999.90;999.90;;;;;;;1.90;100.00;95454.41;4953483;29;20541;-76
2023/01/17 11:44:29;;;;;;;1999.90;999.90;;;;;;;2.15;100.00;95455.75;4943045;29;20024;-77
2023/01/17 11:47:15;;;;;;;1999.90;999.90;;;;;;;2.13;100.00;95456.03;4951709;29;20035;-77
2023/01/17 11:49:42;;;;;;;;;;;;;;;2.10;100.00;95450.44;4946368;29;20036;-75
2023/01/17 11:52:16;;;;;;;1999.90;999.90;;;;;;;2.09;100.00;95436.19;4916679;29;20604;-76
2023/01/17 11:54:45;;;;;;;1999.90;999.90;;;;;;;2.07;100.00;95430.31;4933927;29;20623;-75
2023/01/17 11:57:30;;;;;;;1999.90;999.90;;;;;;;2.01;100.00;95433.41;4934402;29;20035;-75
2023/01/17 12:00:23;;;;;;;1999.90;999.90;;;;;;;2.04;100.00;95430.91;4953434;28;20408;-81
2023/01/17 12:03:18;;;;;;;1999.90;999.90;;;;;;;2.26;100.00;95423.94;4953090;28;20030;-77
2023/01/17 12:06:06;;;;;;;1999.90;999.90;;;;;;;2.09;100.00;95432.72;4953351;29;20027;-77
2023/01/17 12:08:50;;;;;;;1999.90;999.90;;;;;;;2.04;100.00;95413.94;4953195;29;20056;-79
2023/01/17 12:11:27;;;;;;;1999.90;999.90;;;;;;;2.01;100.00;95420.72;4935908;29;20396;-79
2023/01/17 12:14:05;;;;;;;1999.90;999.90;;;;;;;2.01;100.00;95412.66;4953004;29;20106;-78
2023/01/17 12:17:12;;;;;;;1999.90;999.90;;;;;;;1.90;100.00;95399.72;4952556;29;20019;-77
2023/01/17 12:19:47;;;;;;;1999.90;999.90;;;;;;;1.87;100.00;95390.34;4952581;29;20078;-77
2023/01/17 12:22:54;;;;;;;1999.90;999.90;;;;;;;1.83;100.00;95386.66;4952664;29;20042;-80
2023/01/17 12:25:30;;;;;;;1999.90;999.90;;;;;;;1.70;100.00;95371.31;4934253;29;20039;-76
2023/01/17 12:28:08;;;;;;;1999.90;999.90;;;;;;;1.71;100.00;95375.59;4953701;29;20126;-76
2023/01/17 12:30:56;;;;;;;1999.90;999.90;;;;;;;1.70;100.00;95359.72;4950778;28;20031;-79